Time;durP1;ratioP1;P1;durP2;ratioP2;P2;SDS_P1;SDS_P2;PMS_P1;PMS_P2;Temp;Humidity;BMP_temperature;BMP_pressure;BME280_temperature;BME280_humidity;BME280_pressure;Samples;Min_cycle;Max_cycle;Signal;HPM_P1;HPM_P2
2023/06/22 00:01:19;;;;;;;15.87;10.97;;;21.50;36.30;;;;;;5007324;28;20496;-66
2023/06/22 00:03:46;;;;;;;16.80;11.07;;;21.50;36.40;;;;;;5006462;28;20494;-66
2023/06/22 00:06:13;;;;;;;15.50;10.77;;;21.50;36.10;;;;;;5008717;28;20463;-66
2023/06/22 00:08:40;;;;;;;19.37;12.63;;;21.40;36.00;;;;;;5011662;28;21046;-66
2023/06/22 00:11:07;;;;;;;18.00;12.07;;;21.40;36.40;;;;;;5009932;28;20472;-66
2023/06/22 00:13:35;;;;;;;16.67;11.03;;;21.40;36.70;;;;;;5007600;28;20497;-66
2023/06/22 00:16:02;;;;;;;15.97;12.40;;;21.40;36.50;;;;;;5015612;28;20468;-66
2023/06/22 00:18:30;;;;;;;17.70;12.07;;;21.40;36.50;;;;;;5013807;28;20538;-66
2023/06/22 00:20:58;;;;;;;16.90;12.97;;;21.30;36.50;;;;;;5015163;28;20466;-66
2023/06/22 00:23:25;;;;;;;19.67;14.47;;;21.30;36.50;;;;;;5012375;28;20479;-66
2023/06/22 00:25:52;;;;;;;26.43;14.83;;;21.30;36.60;;;;;;5010103;28;20474;-66
2023/06/22 00:28:19;;;;;;;21.73;14.80;;;21.30;36.80;;;;;;5017897;28;20467;-66
2023/06/22 00:30:48;;;;;;;23.40;13.43;;;21.20;36.80;;;;;;5011126;28;20466;-66
2023/06/22 00:33:15;;;;;;;20.43;15.30;;;21.20;37.00;;;;;;5003196;28;20480;-66
2023/06/22 00:35:42;;;;;;;25.47;18.73;;;21.20;37.00;;;;;;5008493;28;20467;-66
2023/06/22 00:38:09;;;;;;;23.70;18.63;;;21.10;37.10;;;;;;5008098;28;20462;-66
2023/06/22 00:40:36;;;;;;;29.10;18.50;;;21.10;37.60;;;;;;5007480;28;20468;-66
2023/06/22 00:43:04;;;;;;;19.60;14.20;;;21.10;37.40;;;;;;5003425;28;20500;-66
2023/06/22 00:45:31;;;;;;;19.23;15.40;;;21.10;37.60;;;;;;5007438;28;20531;-66
2023/06/22 00:48:00;;;;;;;22.50;16.90;;;21.00;38.00;;;;;;5007099;28;20456;-66
2023/06/22 00:50:33;;;;;;;21.07;16.80;;;21.00;38.30;;;;;;5009090;28;20467;-66
2023/06/22 00:53:02;;;;;;;21.77;16.33;;;21.00;38.40;;;;;;5005503;28;20503;-66
2023/06/22 00:55:29;;;;;;;25.20;17.53;;;21.00;38.50;;;;;;5011543;28;20521;-66
2023/06/22 00:57:56;;;;;;;22.17;16.60;;;21.00;38.20;;;;;;5003019;28;20473;-65
2023/06/22 01:00:24;;;;;;;21.93;15.90;;;21.00;38.60;;;;;;5009029;28;20460;-65
2023/06/22 01:02:52;;;;;;;23.00;16.30;;;20.90;39.00;;;;;;5007006;28;20900;-65
2023/06/22 01:05:21;;;;;;;23.67;17.33;;;21.00;38.40;;;;;;4995980;28;20492;-65
2023/06/22 01:08:00;;;;;;;25.57;16.67;;;21.00;38.50;;;;;;5006513;28;20471;-65
2023/06/22 01:10:34;;;;;;;28.87;18.60;;;20.90;38.60;;;;;;5006786;28;20855;-65
2023/06/22 01:13:05;;;;;;;23.30;17.60;;;20.90;38.60;;;;;;5007911;28;20474;-65
2023/06/22 01:15:37;;;;;;;23.93;18.63;;;20.90;38.60;;;;;;5008002;28;20463;-65
2023/06/22 01:18:06;;;;;;;26.73;18.67;;;20.90;39.00;;;;;;5007271;28;20475;-65
2023/06/22 01:20:35;;;;;;;23.30;18.30;;;20.90;39.30;;;;;;5006511;28;20469;-65
2023/06/22 01:23:11;;;;;;;26.53;18.50;;;20.90;39.40;;;;;;5004325;28;21013;-65
2023/06/22 01:25:45;;;;;;;29.87;20.33;;;20.80;39.20;;;;;;5002916;28;20476;-65
2023/06/22 01:28:25;;;;;;;23.50;19.07;;;20.80;39.30;;;;;;5005950;28;20564;-65
2023/06/22 01:31:05;;;;;;;25.73;18.30;;;20.80;39.40;;;;;;5004736;28;20484;-65
2023/06/22 01:33:34;;;;;;;24.67;17.83;;;20.80;39.50;;;;;;5005209;28;20475;-65
2023/06/22 01:36:02;;;;;;;23.80;18.57;;;20.70;39.40;;;;;;5006862;28;20477;-65
2023/06/22 01:38:30;;;;;;;22.93;18.13;;;20.80;39.10;;;;;;5007849;28;20456;-65
2023/06/22 01:40:58;;;;;;;22.60;19.27;;;20.70;39.60;;;;;;5008664;28;20463;-65
2023/06/22 01:43:27;;;;;;;24.53;17.73;;;20.70;39.60;;;;;;5003454;28;20944;-65
2023/06/22 01:45:56;;;;;;;25.20;18.60;;;20.70;39.60;;;;;;5009048;28;20463;-65
2023/06/22 01:48:25;;;;;;;28.50;19.30;;;20.70;39.60;;;;;;5003390;28;20468;-65
2023/06/22 01:50:52;;;;;;;23.67;16.97;;;20.70;39.60;;;;;;5011418;28;20467;-65
2023/06/22 01:53:21;;;;;;;23.27;17.17;;;20.70;39.60;;;;;;5006713;28;20482;-65
2023/06/22 01:55:47;;;;;;;38.27;20.33;;;20.70;39.80;;;;;;5003920;28;20468;-65
2023/06/22 01:58:14;;;;;;;24.17;18.80;;;20.70;39.90;;;;;;5006040;28;20524;-65
2023/06/22 02:00:49;;;;;;;24.27;18.00;;;20.60;39.70;;;;;;5005681;28;21052;-65
2023/06/22 02:03:22;;;;;;;20.53;17.43;;;20.60;39.80;;;;;;5000761;28;20519;-66
2023/06/22 02:05:53;;;;;;;21.37;16.27;;;20.60;39.60;;;;;;5004157;28;20486;-65
2023/06/22 02:08:23;;;;;;;21.73;16.20;;;20.60;39.90;;;;;;5007663;28;20471;-65
2023/06/22 02:10:51;;;;;;;24.70;17.63;;;20.60;40.00;;;;;;5006562;28;20459;-66
2023/06/22 02:13:19;;;;;;;23.70;17.37;;;20.60;39.90;;;;;;5006513;28;20494;-65
2023/06/22 02:15:47;;;;;;;19.10;15.87;;;20.50;39.80;;;;;;5005391;28;20459;-66
2023/06/22 02:18:14;;;;;;;22.50;16.87;;;20.50;39.80;;;;;;5006193;28;20463;-66
2023/06/22 02:20:42;;;;;;;26.43;17.60;;;20.50;40.10;;;;;;5006631;28;20480;-65
2023/06/22 02:23:09;;;;;;;27.20;18.97;;;20.50;40.10;;;;;;5007543;28;20869;-66
2023/06/22 02:25:36;;;;;;;23.67;16.97;;;20.50;40.20;;;;;;5006688;28;20472;-65
2023/06/22 02:28:03;;;;;;;21.03;16.00;;;20.40;40.00;;;;;;5007580;28;20463;-65
2023/06/22 02:30:31;;;;;;;22.90;17.30;;;20.40;40.10;;;;;;5012070;28;21241;-65
2023/06/22 02:32:59;;;;;;;22.70;16.43;;;20.40;39.80;;;;;;5004718;28;20487;-65
2023/06/22 02:35:26;;;;;;;21.83;16.77;;;20.40;40.20;;;;;;5006563;28;20463;-65
2023/06/22 02:37:54;;;;;;;24.27;17.57;;;20.40;40.60;;;;;;5006789;28;20458;-65
2023/06/22 02:40:21;;;;;;;25.60;16.00;;;20.30;40.30;;;;;;5007842;28;20936;-65
2023/06/22 02:42:48;;;;;;;24.60;17.23;;;20.30;40.30;;;;;;5008159;28;20480;-65
2023/06/22 02:45:15;;;;;;;21.40;16.40;;;20.30;40.20;;;;;;5013932;28;20911;-66
2023/06/22 02:47:41;;;;;;;24.43;15.63;;;20.30;40.40;;;;;;5008817;28;20879;-66
2023/06/22 02:50:09;;;;;;;21.40;16.43;;;20.30;40.40;;;;;;5010482;28;20467;-66
2023/06/22 02:52:36;;;;;;;23.33;16.00;;;20.30;40.50;;;;;;5007734;28;20620;-66
2023/06/22 02:55:04;;;;;;;25.00;16.50;;;20.20;40.50;;;;;;5009463;28;20470;-66
2023/06/22 02:57:31;;;;;;;18.77;14.97;;;20.20;40.70;;;;;;5010675;28;20467;-66
2023/06/22 02:59:58;;;;;;;21.60;16.20;;;20.20;41.40;;;;;;5006266;28;20465;-65
2023/06/22 03:02:26;;;;;;;26.03;16.90;;;20.20;40.50;;;;;;5009462;28;20972;-65
2023/06/22 03:04:53;;;;;;;22.30;15.90;;;20.20;40.60;;;;;;5010127;28;20472;-65
2023/06/22 03:07:20;;;;;;;22.23;15.73;;;20.20;40.60;;;;;;5011447;28;20471;-65
2023/06/22 03:09:47;;;;;;;26.97;16.83;;;20.20;40.70;;;;;;5005998;28;20469;-66
2023/06/22 03:12:15;;;;;;;25.70;17.60;;;20.20;40.50;;;;;;5008018;28;20490;-67
2023/06/22 03:14:41;;;;;;;22.70;15.80;;;20.20;40.70;;;;;;5008350;28;20844;-66
2023/06/22 03:17:08;;;;;;;22.80;16.43;;;20.20;40.50;;;;;;5009530;28;20474;-66
2023/06/22 03:19:35;;;;;;;20.50;15.67;;;20.20;40.30;;;;;;5004986;28;20482;-65
2023/06/22 03:22:01;;;;;;;26.73;17.10;;;20.20;40.20;;;;;;5008436;28;20487;-65
2023/06/22 03:24:29;;;;;;;25.63;17.30;;;20.20;40.70;;;;;;5007911;28;21293;-66
2023/06/22 03:26:56;;;;;;;24.43;17.10;;;20.20;40.90;;;;;;5007297;28;20468;-66
2023/06/22 03:29:25;;;;;;;23.20;15.57;;;20.10;41.20;;;;;;5005343;28;20460;-65
2023/06/22 03:31:51;;;;;;;24.20;16.87;;;20.10;41.50;;;;;;5007851;28;20507;-66
2023/06/22 03:34:18;;;;;;;27.53;16.67;;;20.10;41.30;;;;;;5006510;28;20456;-66
2023/06/22 03:36:46;;;;;;;25.53;16.80;;;20.10;41.40;;;;;;5009697;28;20544;-65
2023/06/22 03:39:12;;;;;;;24.93;15.53;;;20.10;41.40;;;;;;5009764;28;20526;-66
2023/06/22 03:41:39;;;;;;;27.70;15.67;;;20.10;41.40;;;;;;5009910;28;20494;-66
2023/06/22 03:44:06;;;;;;;25.50;15.20;;;20.00;41.20;;;;;;5007631;28;20512;-66
2023/06/22 03:46:34;;;;;;;22.03;15.50;;;20.00;41.30;;;;;;5008970;28;20467;-66
2023/06/22 03:49:02;;;;;;;21.57;16.37;;;20.00;41.70;;;;;;5009999;28;20464;-66
2023/06/22 03:51:30;;;;;;;23.47;17.20;;;20.00;41.70;;;;;;5009770;28;20455;-65
2023/06/22 03:53:56;;;;;;;18.37;14.43;;;20.00;41.90;;;;;;5007962;28;20945;-66
2023/06/22 03:56:23;;;;;;;21.07;16.17;;;20.00;41.90;;;;;;5008430;28;20471;-65
2023/06/22 03:58:50;;;;;;;25.53;16.63;;;20.10;42.00;;;;;;5008725;28;20468;-65
2023/06/22 04:01:17;;;;;;;22.53;16.40;;;20.10;42.10;;;;;;5007335;28;20480;-65
2023/06/22 04:03:48;;;;;;;24.00;16.03;;;20.10;42.00;;;;;;5008050;28;20515;-66
2023/06/22 04:06:14;;;;;;;22.83;16.57;;;20.10;41.90;;;;;;5008656;28;20462;-65
2023/06/22 04:08:42;;;;;;;21.90;16.97;;;20.20;41.60;;;;;;5004847;28;20467;-66
2023/06/22 04:11:08;;;;;;;25.13;16.10;;;20.30;41.30;;;;;;5006992;28;21349;-66
2023/06/22 04:13:35;;;;;;;19.67;15.03;;;20.30;41.40;;;;;;5010183;28;20495;-65
2023/06/22 04:16:02;;;;;;;27.80;16.40;;;20.30;41.00;;;;;;5008626;28;21003;-65
2023/06/22 04:18:28;;;;;;;24.13;16.77;;;20.30;41.10;;;;;;5005865;28;20476;-66
2023/06/22 04:20:56;;;;;;;21.70;15.17;;;20.40;40.90;;;;;;5004633;28;20471;-65
2023/06/22 04:23:23;;;;;;;22.27;15.03;;;20.40;40.80;;;;;;5005769;28;20480;-64
2023/06/22 04:25:50;;;;;;;21.70;15.50;;;20.40;40.70;;;;;;5005858;28;21242;-63
2023/06/22 04:28:18;;;;;;;20.27;15.10;;;20.50;40.60;;;;;;5002771;28;20952;-63
2023/06/22 04:30:47;;;;;;;22.83;14.47;;;20.50;40.70;;;;;;5008207;28;20468;-63
2023/06/22 04:33:14;;;;;;;24.63;15.70;;;20.60;40.60;;;;;;5006945;28;20571;-63
2023/06/22 04:35:42;;;;;;;20.90;15.07;;;20.80;40.40;;;;;;5003847;28;20459;-63
2023/06/22 04:38:13;;;;;;;23.77;15.87;;;21.00;40.10;;;;;;5005185;28;20503;-63
2023/06/22 04:40:39;;;;;;;20.17;13.50;;;21.50;39.60;;;;;;5000495;28;20560;-63
2023/06/22 04:43:06;;;;;;;16.80;12.43;;;22.10;37.60;;;;;;5005304;28;20492;-63
2023/06/22 04:45:33;;;;;;;17.23;11.77;;;22.60;35.80;;;;;;5008817;28;20467;-64
2023/06/22 04:48:00;;;;;;;18.17;12.50;;;23.20;33.70;;;;;;5005102;28;20476;-63
2023/06/22 04:50:27;;;;;;;18.80;11.97;;;23.70;32.00;;;;;;5004758;28;20496;-63
2023/06/22 04:52:53;;;;;;;19.50;12.43;;;24.10;30.20;;;;;;5004122;28;20492;-64
2023/06/22 04:55:21;;;;;;;17.43;12.00;;;24.50;28.40;;;;;;4998126;28;20480;-64
2023/06/22 04:57:49;;;;;;;18.30;12.67;;;24.80;27.40;;;;;;5006905;28;20471;-65
2023/06/22 05:00:18;;;;;;;16.90;11.80;;;24.90;26.80;;;;;;5003802;28;20499;-65
2023/06/22 05:02:45;;;;;;;18.17;11.33;;;25.30;25.90;;;;;;5001971;28;20574;-65
2023/06/22 05:05:14;;;;;;;13.80;10.70;;;25.90;23.40;;;;;;5000620;28;20466;-64
2023/06/22 05:07:43;;;;;;;15.30;10.97;;;26.60;21.10;;;;;;5003549;28;20467;-64
2023/06/22 05:10:11;;;;;;;17.10;10.83;;;27.10;19.90;;;;;;5003381;28;20943;-64
2023/06/22 05:12:40;;;;;;;16.93;11.77;;;27.50;18.60;;;;;;5033341;23;20509;-66
2023/06/22 05:15:08;;;;;;;19.00;11.43;;;27.50;17.80;;;;;;5022116;28;20455;-68
2023/06/22 05:17:35;;;;;;;15.93;11.53;;;28.00;17.30;;;;;;5020500;28;20471;-68
2023/06/22 05:20:02;;;;;;;18.30;11.80;;;28.70;15.70;;;;;;5021893;28;20470;-68
2023/06/22 05:22:29;;;;;;;22.00;12.07;;;29.50;14.20;;;;;;5017304;28;20489;-68
2023/06/22 05:24:55;;;;;;;15.70;12.13;;;30.10;12.30;;;;;;5021288;28;20498;-68
2023/06/22 05:27:22;;;;;;;13.80;10.70;;;30.30;10.80;;;;;;5021741;28;20516;-68
2023/06/22 05:29:50;;;;;;;11.80;9.60;;;30.70;9.70;;;;;;5026262;28;20497;-67
2023/06/22 05:32:17;;;;;;;12.00;10.00;;;31.20;9.20;;;;;;5024500;28;21564;-68
2023/06/22 05:34:43;;;;;;;14.77;10.20;;;31.60;7.80;;;;;;5022114;28;20486;-67
2023/06/22 05:37:10;;;;;;;14.63;9.63;;;32.20;7.40;;;;;;5018406;28;20466;-67
2023/06/22 05:39:38;;;;;;;12.57;10.53;;;32.80;5.70;;;;;;5022346;28;20465;-66
2023/06/22 05:42:06;;;;;;;15.80;9.30;;;33.40;4.50;;;;;;5026885;28;20483;-67
2023/06/22 05:44:33;;;;;;;13.50;8.33;;;33.90;3.20;;;;;;5027540;28;20515;-67
2023/06/22 05:47:02;;;;;;;13.63;9.03;;;34.40;2.10;;;;;;5019164;28;20536;-68
2023/06/22 05:49:32;;;;;;;11.50;8.70;;;34.90;1.30;;;;;;5019457;28;20474;-68
2023/06/22 05:51:59;;;;;;;14.80;8.07;;;35.50;1.00;;;;;;5023441;28;20478;-66
2023/06/22 05:54:26;;;;;;;15.33;9.23;;;35.80;1.00;;;;;;5030013;28;20465;-67
2023/06/22 05:56:52;;;;;;;11.87;8.73;;;36.10;1.00;;;;;;5017625;28;20478;-67
2023/06/22 05:59:19;;;;;;;11.67;8.90;;;36.20;1.00;;;;;;5021138;28;20478;-66
2023/06/22 06:01:49;;;;;;;15.30;9.60;;;36.20;1.00;;;;;;5029292;28;20833;-68
2023/06/22 06:04:17;;;;;;;11.03;8.60;;;36.20;1.00;;;;;;5029855;28;20479;-67
2023/06/22 06:06:44;;;;;;;13.47;8.70;;;36.60;1.00;;;;;;5024326;28;20470;-67
2023/06/22 06:09:11;;;;;;;13.70;9.10;;;37.20;1.00;;;;;;5027143;28;20478;-67
2023/06/22 06:11:38;;;;;;;13.70;9.70;;;37.20;1.00;;;;;;5022370;28;20908;-67
2023/06/22 06:14:05;;;;;;;16.10;8.57;;;37.30;1.00;;;;;;5024043;28;20459;-67
2023/06/22 06:16:32;;;;;;;10.93;8.13;;;37.40;1.00;;;;;;5026450;28;20494;-67
2023/06/22 06:18:59;;;;;;;10.87;8.13;;;37.60;1.00;;;;;;5025226;28;20463;-68
2023/06/22 06:21:27;;;;;;;12.60;7.83;;;37.80;1.00;;;;;;5024174;28;20468;-68
2023/06/22 06:23:56;;;;;;;12.93;8.27;;;38.50;1.00;;;;;;5025895;28;20529;-69
2023/06/22 06:26:27;;;;;;;11.50;7.93;;;39.10;1.00;;;;;;5024253;28;20471;-70
2023/06/22 06:28:55;;;;;;;10.10;6.87;;;39.50;1.00;;;;;;5023953;28;20580;-68
2023/06/22 06:31:22;;;;;;;10.37;7.47;;;40.00;1.00;;;;;;5026521;28;20956;-67
2023/06/22 06:33:49;;;;;;;11.23;8.73;;;40.30;1.00;;;;;;5027830;28;20566;-68
2023/06/22 06:36:16;;;;;;;11.40;7.43;;;39.80;1.00;;;;;;5026666;28;20474;-69
2023/06/22 06:38:44;;;;;;;11.10;7.10;;;39.60;1.00;;;;;;5027700;28;20458;-68
2023/06/22 06:41:11;;;;;;;10.90;7.30;;;40.10;1.00;;;;;;5027369;28;20517;-68
2023/06/22 06:43:37;;;;;;;13.00;7.77;;;40.50;1.00;;;;;;5029341;28;21003;-69
2023/06/22 06:46:04;;;;;;;11.43;8.00;;;40.70;1.00;;;;;;5029044;28;20467;-69
2023/06/22 06:48:31;;;;;;;12.03;7.10;;;40.80;1.00;;;;;;5020506;28;20467;-69
2023/06/22 06:50:58;;;;;;;11.00;7.57;;;41.30;1.00;;;;;;5042305;28;20472;-70
2023/06/22 06:53:24;;;;;;;9.90;7.40;;;41.30;1.00;;;;;;5043631;28;20483;-69
2023/06/22 06:55:52;;;;;;;8.97;6.63;;;41.80;1.00;;;;;;5036097;28;20468;-69
2023/06/22 06:58:19;;;;;;;10.50;8.03;;;42.60;1.00;;;;;;5025282;28;20470;-69
2023/06/22 07:00:46;;;;;;;11.40;8.40;;;43.30;1.00;;;;;;5023529;28;20839;-70
2023/06/22 07:03:12;;;;;;;10.30;7.70;;;43.70;1.00;;;;;;5027563;28;20478;-68
2023/06/22 07:05:39;;;;;;;8.03;6.80;;;44.20;1.00;;;;;;5022920;28;20482;-69
2023/06/22 07:08:06;;;;;;;8.60;6.53;;;44.30;1.00;;;;;;5024335;28;20479;-69
2023/06/22 07:10:33;;;;;;;13.23;7.50;;;44.60;1.00;;;;;;5017973;28;20463;-69
2023/06/22 07:13:01;;;;;;;12.50;6.93;;;45.00;1.00;;;;;;5022839;28;20484;-68
2023/06/22 07:15:27;;;;;;;9.90;7.47;;;45.80;1.00;;;;;;5025346;28;20558;-68
2023/06/22 07:17:54;;;;;;;8.30;6.60;;;46.70;1.00;;;;;;5028914;28;20483;-69
2023/06/22 07:20:21;;;;;;;15.47;7.80;;;46.70;1.00;;;;;;5025115;28;20471;-68
2023/06/22 07:22:48;;;;;;;11.10;7.03;;;46.50;1.00;;;;;;5023921;28;20483;-68
2023/06/22 07:25:15;;;;;;;12.67;8.37;;;46.50;1.00;;;;;;5024215;28;20613;-69
2023/06/22 07:27:45;;;;;;;12.13;7.70;;;46.70;1.00;;;;;;5023841;28;20462;-69
2023/06/22 07:30:14;;;;;;;10.40;7.20;;;47.20;1.00;;;;;;5020478;28;20470;-69
2023/06/22 07:32:41;;;;;;;13.20;7.13;;;47.60;1.00;;;;;;5024744;28;20494;-69
2023/06/22 07:35:09;;;;;;;10.63;7.83;;;47.60;1.00;;;;;;5024561;28;20824;-69
2023/06/22 07:37:35;;;;;;;10.33;8.27;;;47.30;1.00;;;;;;5025162;28;21521;-69
2023/06/22 07:40:05;;;;;;;12.73;7.50;;;47.10;1.00;;;;;;5026211;28;20459;-70
2023/06/22 07:42:33;;;;;;;12.67;7.83;;;47.20;1.00;;;;;;5026271;28;20498;-69
2023/06/22 07:45:00;;;;;;;10.33;7.00;;;46.80;1.00;;;;;;5025355;28;20482;-69
2023/06/22 07:47:28;;;;;;;9.40;7.20;;;47.10;1.00;;;;;;5020508;28;20471;-68
2023/06/22 07:49:57;;;;;;;9.83;6.87;;;47.40;1.00;;;;;;5025617;28;20472;-69
2023/06/22 07:52:24;;;;;;;12.37;7.87;;;48.00;1.00;;;;;;5024408;28;20582;-70
2023/06/22 07:54:51;;;;;;;10.10;7.03;;;48.20;1.00;;;;;;5025044;28;20462;-70
2023/06/22 07:57:18;;;;;;;10.17;7.60;;;48.30;1.00;;;;;;5021156;28;20462;-69
2023/06/22 07:59:45;;;;;;;10.70;7.67;;;48.40;1.00;;;;;;5027671;28;20517;-69
2023/06/22 08:02:11;;;;;;;9.50;6.80;;;48.20;1.00;;;;;;5023024;28;20482;-69
2023/06/22 08:04:40;;;;;;;13.03;6.50;;;48.60;1.00;;;;;;5021255;28;20476;-69
2023/06/22 08:07:07;;;;;;;9.00;7.67;;;49.90;1.00;;;;;;5027544;28;20480;-69
2023/06/22 08:09:34;;;;;;;11.13;7.50;;;50.90;1.00;;;;;;5023829;28;20466;-68
2023/06/22 08:12:01;;;;;;;8.57;7.17;;;50.90;1.00;;;;;;5026936;28;20495;-67
2023/06/22 08:14:28;;;;;;;10.70;7.60;;;51.20;1.00;;;;;;5024249;28;20459;-67
2023/06/22 08:16:55;;;;;;;9.10;7.10;;;52.10;1.00;;;;;;5024886;28;21127;-66
2023/06/22 08:19:22;;;;;;;13.60;6.80;;;52.50;1.00;;;;;;5026382;28;20984;-67
2023/06/22 08:21:50;;;;;;;11.50;7.20;;;53.10;1.00;;;;;;5022604;28;20482;-67
2023/06/22 08:24:17;;;;;;;12.40;7.43;;;53.70;1.00;;;;;;5023576;28;20979;-67
2023/06/22 08:26:43;;;;;;;12.23;8.07;;;52.90;1.00;;;;;;5023069;28;20477;-68
2023/06/22 08:29:10;;;;;;;11.70;7.23;;;53.00;1.00;;;;;;5025758;28;20947;-67
2023/06/22 08:31:37;;;;;;;10.03;7.90;;;53.60;1.00;;;;;;5026912;28;20565;-68
2023/06/22 08:34:04;;;;;;;10.47;7.10;;;53.70;1.00;;;;;;5028858;28;20462;-67
2023/06/22 08:36:37;;;;;;;10.97;7.50;;;53.10;1.00;;;;;;5024680;28;20466;-68
2023/06/22 08:39:05;;;;;;;17.23;8.20;;;52.30;1.00;;;;;;5023652;28;20466;-67
2023/06/22 08:41:32;;;;;;;10.83;7.97;;;51.20;1.00;;;;;;5023065;28;20477;-67
2023/06/22 08:43:59;;;;;;;11.70;9.00;;;50.90;1.00;;;;;;5024620;28;20479;-68
2023/06/22 08:46:30;;;;;;;10.23;7.80;;;51.00;1.00;;;;;;5022770;28;20901;-67
2023/06/22 08:48:57;;;;;;;11.97;7.23;;;51.60;1.00;;;;;;5022047;28;21197;-67
2023/06/22 08:51:24;;;;;;;12.63;6.60;;;52.00;1.00;;;;;;5022442;28;20525;-68
2023/06/22 08:53:51;;;;;;;12.43;7.53;;;52.20;1.00;;;;;;5026011;28;20478;-68
2023/06/22 08:56:19;;;;;;;12.63;7.40;;;52.40;1.00;;;;;;5025162;28;20469;-67
2023/06/22 08:58:46;;;;;;;10.57;7.53;;;52.50;1.00;;;;;;5020703;28;20513;-67
2023/06/22 09:01:15;;;;;;;9.73;7.23;;;52.60;1.00;;;;;;5020757;28;20478;-67
2023/06/22 09:03:42;;;;;;;10.10;7.37;;;52.90;1.00;;;;;;5022488;28;20518;-67
2023/06/22 09:06:09;;;;;;;10.17;7.90;;;52.90;1.00;;;;;;5022176;28;20477;-67
2023/06/22 09:08:35;;;;;;;11.97;8.40;;;52.30;1.00;;;;;;5018482;28;20545;-67
2023/06/22 09:11:02;;;;;;;10.63;7.13;;;51.90;1.00;;;;;;5020249;28;20819;-67
2023/06/22 09:13:31;;;;;;;13.27;8.70;;;51.50;1.00;;;;;;5017134;28;20501;-67
2023/06/22 09:15:58;;;;;;;10.43;7.63;;;51.00;1.00;;;;;;5023442;28;20954;-67
2023/06/22 09:18:25;;;;;;;12.13;7.20;;;50.80;1.00;;;;;;5019190;28;21010;-67
2023/06/22 09:20:52;;;;;;;9.77;7.30;;;50.00;1.00;;;;;;5024103;28;20828;-67
2023/06/22 09:23:18;;;;;;;14.20;8.23;;;48.50;1.00;;;;;;5020751;28;20578;-68
2023/06/22 09:25:47;;;;;;;11.10;8.17;;;47.20;1.00;;;;;;5022111;28;20487;-67
2023/06/22 09:28:14;;;;;;;11.97;9.30;;;46.00;1.00;;;;;;5021630;28;20547;-66
2023/06/22 09:30:43;;;;;;;12.13;8.33;;;44.90;1.00;;;;;;5019374;28;20483;-67
2023/06/22 09:33:10;;;;;;;13.70;8.17;;;43.90;1.00;;;;;;5018801;28;20483;-68
2023/06/22 09:35:37;;;;;;;14.73;8.67;;;43.30;1.00;;;;;;5019925;28;20834;-68
2023/06/22 09:38:03;;;;;;;10.67;7.00;;;42.80;1.00;;;;;;5024122;28;20469;-68
2023/06/22 09:40:32;;;;;;;13.60;7.10;;;42.40;1.00;;;;;;5018347;28;20814;-68
2023/06/22 09:42:59;;;;;;;15.20;7.47;;;41.90;1.00;;;;;;5020244;28;20487;-67
2023/06/22 09:45:25;;;;;;;18.03;7.93;;;41.50;1.00;;;;;;5018080;28;20478;-67
2023/06/22 09:47:53;;;;;;;12.50;7.97;;;41.00;1.00;;;;;;5015129;28;20459;-67
2023/06/22 09:50:20;;;;;;;13.43;7.40;;;40.60;1.00;;;;;;5018495;28;20994;-67
2023/06/22 09:52:50;;;;;;;15.50;9.40;;;40.00;1.00;;;;;;5025266;28;20482;-68
2023/06/22 09:55:17;;;;;;;12.47;8.73;;;39.80;1.00;;;;;;5023189;28;20450;-67
2023/06/22 09:57:43;;;;;;;18.97;9.03;;;39.40;1.00;;;;;;5022461;28;20493;-68
2023/06/22 10:00:13;;;;;;;13.57;8.50;;;39.10;1.00;;;;;;5018748;28;20473;-68
2023/06/22 10:02:40;;;;;;;15.67;8.40;;;38.90;1.00;;;;;;5020584;28;20545;-67
2023/06/22 10:05:08;;;;;;;16.70;9.17;;;38.60;1.00;;;;;;5031816;28;20479;-66
2023/06/22 10:07:39;;;;;;;15.30;8.90;;;38.40;1.00;;;;;;5033456;28;20482;-68
2023/06/22 10:10:07;;;;;;;13.50;8.80;;;38.20;1.00;;;;;;5018193;28;20994;-67
2023/06/22 10:12:33;;;;;;;15.67;9.20;;;37.90;1.00;;;;;;5019185;28;20494;-67
2023/06/22 10:15:00;;;;;;;16.37;9.07;;;37.60;1.00;;;;;;5022405;28;20486;-67
2023/06/22 10:17:27;;;;;;;11.17;8.73;;;37.30;1.00;;;;;;5022517;28;20468;-67
2023/06/22 10:19:53;;;;;;;18.43;9.10;;;37.10;1.00;;;;;;5020137;28;20869;-67
2023/06/22 10:22:21;;;;;;;17.00;10.80;;;36.90;1.00;;;;;;5024213;28;20511;-67
2023/06/22 10:24:48;;;;;;;13.47;9.87;;;36.70;1.00;;;;;;5021655;28;20582;-67
2023/06/22 10:27:15;;;;;;;20.10;10.87;;;36.50;1.00;;;;;;5021910;28;20471;-67
2023/06/22 10:29:42;;;;;;;13.30;9.23;;;36.50;1.00;;;;;;5022822;28;20467;-66
2023/06/22 10:32:09;;;;;;;14.23;10.10;;;36.50;1.00;;;;;;5017109;28;20494;-67
2023/06/22 10:34:36;;;;;;;14.73;9.70;;;36.50;1.00;;;;;;5016648;28;20470;-68
2023/06/22 10:37:03;;;;;;;18.73;10.57;;;36.50;1.00;;;;;;5017993;28;20467;-68
2023/06/22 10:39:31;;;;;;;16.03;10.57;;;36.40;1.00;;;;;;5016834;28;20464;-67
2023/06/22 10:41:57;;;;;;;14.03;10.60;;;36.30;1.00;;;;;;5024679;28;20487;-67
2023/06/22 10:44:24;;;;;;;21.70;10.80;;;36.20;1.00;;;;;;5025796;28;20468;-67
2023/06/22 10:46:51;;;;;;;20.17;10.83;;;36.10;1.00;;;;;;5027742;28;20483;-67
2023/06/22 10:49:17;;;;;;;14.53;10.10;;;36.00;1.00;;;;;;5027027;28;20474;-67
2023/06/22 10:51:44;;;;;;;16.07;10.40;;;36.00;1.00;;;;;;5023056;28;21164;-68
2023/06/22 10:54:13;;;;;;;18.13;10.57;;;36.00;1.00;;;;;;5023964;28;20471;-67
2023/06/22 10:56:41;;;;;;;19.17;10.03;;;36.00;1.00;;;;;;5026673;28;20466;-67
2023/06/22 10:59:08;;;;;;;16.10;10.23;;;36.00;1.00;;;;;;5026362;28;20463;-66
2023/06/22 11:01:35;;;;;;;12.77;9.60;;;35.90;1.00;;;;;;5028134;28;20510;-66
2023/06/22 11:04:02;;;;;;;17.67;9.87;;;35.80;1.00;;;;;;5022775;28;20507;-66
2023/06/22 11:06:28;;;;;;;18.10;9.80;;;35.70;1.00;;;;;;5026762;28;20489;-67
2023/06/22 11:08:55;;;;;;;16.13;10.60;;;35.60;1.00;;;;;;5020391;28;21252;-66
2023/06/22 11:11:22;;;;;;;19.03;11.00;;;35.50;1.00;;;;;;5021905;28;20463;-66
2023/06/22 11:13:50;;;;;;;12.77;9.00;;;35.50;1.00;;;;;;5038007;23;20482;-65
2023/06/22 11:16:16;;;;;;;14.27;8.60;;;35.40;1.00;;;;;;5028475;28;20867;-65
2023/06/22 11:18:43;;;;;;;15.30;8.50;;;35.30;1.00;;;;;;5026111;28;20490;-65
2023/06/22 11:21:10;;;;;;;16.57;9.50;;;35.20;1.00;;;;;;5021221;28;21033;-66
2023/06/22 11:23:37;;;;;;;18.60;9.13;;;35.00;1.00;;;;;;5010247;28;20487;-66
2023/06/22 11:26:03;;;;;;;14.27;8.00;;;34.90;1.00;;;;;;5006700;28;20954;-66
2023/06/22 11:28:30;;;;;;;13.83;9.03;;;34.90;1.00;;;;;;5002262;28;20514;-65
2023/06/22 11:30:58;;;;;;;15.40;7.90;;;34.80;1.00;;;;;;5002718;28;20482;-66
2023/06/22 11:33:25;;;;;;;14.40;7.83;;;34.80;1.00;;;;;;4998921;28;20483;-66
2023/06/22 11:35:52;;;;;;;15.80;9.20;;;34.80;1.00;;;;;;5003909;28;20465;-65
2023/06/22 11:38:18;;;;;;;16.97;8.77;;;34.80;1.00;;;;;;5006768;28;20476;-66
2023/06/22 11:40:45;;;;;;;13.97;7.93;;;34.90;1.00;;;;;;4999717;28;20472;-67
2023/06/22 11:43:12;;;;;;;16.80;8.37;;;35.00;1.00;;;;;;4997437;28;20499;-65
2023/06/22 11:45:38;;;;;;;15.40;8.20;;;35.10;1.00;;;;;;4997675;28;20493;-64
2023/06/22 11:48:07;;;;;;;13.70;7.80;;;34.90;1.00;;;;;;5003661;28;20467;-64
2023/06/22 11:50:35;;;;;;;12.50;7.97;;;34.70;1.00;;;;;;5004139;28;20471;-65
2023/06/22 11:53:02;;;;;;;15.70;9.40;;;34.60;1.00;;;;;;5005529;28;20488;-64
2023/06/22 11:55:29;;;;;;;14.10;7.93;;;34.60;1.00;;;;;;5001865;28;20464;-66
2023/06/22 11:57:58;;;;;;;15.27;8.53;;;34.60;1.00;;;;;;5006923;28;20475;-64
2023/06/22 12:00:25;;;;;;;13.40;8.57;;;34.70;1.00;;;;;;5004398;28;20968;-66
2023/06/22 12:02:52;;;;;;;16.50;8.63;;;34.60;1.00;;;;;;5006031;28;20483;-66
2023/06/22 12:05:21;;;;;;;17.67;9.17;;;34.60;1.00;;;;;;5000542;28;20484;-65
2023/06/22 12:07:48;;;;;;;17.60;7.87;;;34.60;1.00;;;;;;5002259;28;20467;-66
2023/06/22 12:10:14;;;;;;;23.50;10.27;;;34.60;1.00;;;;;;4997710;28;20460;-66
2023/06/22 12:12:42;;;;;;;15.80;8.40;;;34.60;1.00;;;;;;5003325;28;20487;-65
2023/06/22 12:15:10;;;;;;;14.30;7.07;;;34.60;1.00;;;;;;4998252;28;20498;-65
2023/06/22 12:17:37;;;;;;;15.07;8.50;;;34.80;1.30;;;;;;4999467;28;20468;-65
2023/06/22 12:20:05;;;;;;;16.60;7.47;;;35.00;2.20;;;;;;5002973;28;20948;-65
2023/06/22 12:22:33;;;;;;;11.43;7.00;;;35.20;2.00;;;;;;5003482;28;20483;-65
2023/06/22 12:25:00;;;;;;;14.67;7.80;;;35.40;1.30;;;;;;5005262;28;20870;-65
2023/06/22 12:27:27;;;;;;;15.70;7.40;;;35.50;1.00;;;;;;5003360;28;20471;-65
2023/06/22 12:29:53;;;;;;;22.87;8.40;;;35.60;1.00;;;;;;5004266;28;20859;-65
2023/06/22 12:32:20;;;;;;;15.60;7.97;;;35.60;1.00;;;;;;4997905;28;20493;-65
2023/06/22 12:34:47;;;;;;;15.07;8.07;;;35.60;1.00;;;;;;4998277;28;20994;-66
2023/06/22 12:37:13;;;;;;;17.30;9.30;;;35.50;1.00;;;;;;4999691;28;20463;-67
2023/06/22 12:39:42;;;;;;;16.17;7.83;;;35.40;1.00;;;;;;5003784;28;20463;-66